Time;durP1;ratioP1;P1;durP2;ratioP2;P2;SDS_P1;SDS_P2;PMS_P1;PMS_P2;Temp;Humidity;BMP_temperature;BMP_pressure;BME280_temperature;BME280_humidity;BME280_pressure;Samples;Min_cycle;Max_cycle;Signal;HPM_P1;HPM_P2
2022/06/21 00:01:48;;;;;;;5.90;5.50;;;17.20;99.90;;;;;;4917941;29;20198;-83
2022/06/21 00:04:14;;;;;;;6.03;5.63;;;17.20;99.90;;;;;;4898136;29;20673;-84
2022/06/21 00:06:41;;;;;;;5.80;5.40;;;17.10;99.90;;;;;;4914905;29;20229;-85
2022/06/21 00:09:12;;;;;;;6.10;5.70;;;17.10;99.90;;;;;;4917503;29;20210;-83
2022/06/21 00:11:39;;;;;;;6.00;5.47;;;17.10;99.90;;;;;;4900849;29;20206;-84
2022/06/21 00:14:06;;;;;;;6.17;5.77;;;17.10;99.90;;;;;;4900440;29;20253;-84
2022/06/21 00:16:34;;;;;;;6.20;5.80;;;17.10;99.90;;;;;;4897809;29;20778;-83
2022/06/21 00:19:02;;;;;;;6.03;5.57;;;17.10;99.90;;;;;;4916583;29;20200;-83
2022/06/21 00:21:33;;;;;;;6.53;6.03;;;17.00;99.90;;;;;;4900916;29;20213;-83
2022/06/21 00:24:00;;;;;;;6.03;5.63;;;16.90;99.90;;;;;;4899250;29;20212;-83
2022/06/21 00:26:29;;;;;;;6.00;5.60;;;16.90;99.90;;;;;;4900743;29;20622;-84
2022/06/21 00:28:56;;;;;;;5.70;5.40;;;16.90;99.90;;;;;;4907080;29;20294;-83
2022/06/21 00:31:28;;;;;;;5.77;5.37;;;16.90;99.90;;;;;;4902312;29;20219;-83
2022/06/21 00:33:57;;;;;;;6.40;5.90;;;16.80;99.90;;;;;;4905068;29;20264;-84
2022/06/21 00:36:26;;;;;;;5.80;5.40;;;16.60;99.90;;;;;;4908239;29;20267;-85
2022/06/21 00:38:54;;;;;;;7.00;5.87;;;16.60;99.90;;;;;;4916930;29;20234;-83
2022/06/21 00:41:33;;;;;;;5.70;5.30;;;16.50;99.90;;;;;;4917277;29;20208;-84
2022/06/21 00:44:03;;;;;;;5.80;5.40;;;16.40;99.90;;;;;;4904064;29;20206;-84
2022/06/21 00:46:36;;;;;;;6.07;5.67;;;16.40;99.90;;;;;;4898234;29;20199;-84
2022/06/21 00:49:06;;;;;;;6.20;5.70;;;16.40;99.90;;;;;;4900717;29;20203;-84
2022/06/21 00:51:37;;;;;;;5.90;5.50;;;16.40;99.90;;;;;;4900759;29;20208;-84
2022/06/21 00:54:09;;;;;;;5.70;5.30;;;16.30;99.90;;;;;;4899873;29;20205;-84
2022/06/21 00:56:40;;;;;;;5.90;5.40;;;16.20;99.90;;;;;;4912994;29;20279;-84
2022/06/21 00:59:19;;;;;;;5.70;5.27;;;16.10;99.90;;;;;;4899904;29;20214;-84
2022/06/21 01:01:47;;;;;;;5.50;5.10;;;16.10;99.90;;;;;;4900183;29;20215;-85
2022/06/21 01:04:20;;;;;;;5.70;5.30;;;16.10;99.90;;;;;;4904310;29;20208;-85
2022/06/21 01:06:52;;;;;;;5.20;4.90;;;16.00;99.90;;;;;;4892773;29;20310;-84
2022/06/21 01:09:24;;;;;;;5.90;5.40;;;16.00;99.90;;;;;;4914013;29;20231;-83
2022/06/21 01:11:56;;;;;;;6.10;5.70;;;16.00;99.90;;;;;;4914031;29;20203;-83
2022/06/21 01:14:24;;;;;;;5.63;5.30;;;16.00;99.90;;;;;;4908340;29;20228;-83
2022/06/21 01:16:51;;;;;;;5.70;5.40;;;15.90;99.90;;;;;;4903207;29;20230;-83
2022/06/21 01:19:29;;;;;;;6.00;5.50;;;16.00;99.90;;;;;;4908806;29;20258;-84
2022/06/21 01:22:16;;;;;;;5.80;5.40;;;16.00;99.90;;;;;;4915165;29;20209;-84
2022/06/21 01:24:55;;;;;;;5.90;5.50;;;16.00;99.90;;;;;;4903917;29;20231;-83
2022/06/21 01:27:23;;;;;;;5.97;5.57;;;15.90;99.90;;;;;;4916278;29;20195;-84
2022/06/21 01:29:52;;;;;;;5.90;5.50;;;15.80;99.90;;;;;;4897089;29;20274;-84
2022/06/21 01:32:19;;;;;;;5.70;5.30;;;15.70;99.90;;;;;;4909886;29;20206;-84
2022/06/21 01:34:46;;;;;;;5.80;5.40;;;15.70;99.90;;;;;;4898179;29;20231;-83
2022/06/21 01:37:18;;;;;;;5.30;5.00;;;15.70;99.90;;;;;;4915735;29;20212;-84
2022/06/21 01:39:52;;;;;;;5.90;5.50;;;15.60;99.90;;;;;;4902253;29;20202;-84
2022/06/21 01:42:22;;;;;;;5.80;5.40;;;15.60;99.90;;;;;;4908423;29;20193;-83
2022/06/21 01:44:55;;;;;;;5.97;5.37;;;15.60;99.90;;;;;;4898745;29;20247;-83
2022/06/21 01:47:25;;;;;;;10.33;6.20;;;15.50;99.90;;;;;;4897863;29;20207;-83
2022/06/21 01:49:56;;;;;;;5.90;5.37;;;15.50;99.90;;;;;;4900933;29;20265;-84
2022/06/21 01:52:27;;;;;;;6.40;5.73;;;15.50;99.90;;;;;;4893357;29;20218;-82
2022/06/21 01:54:59;;;;;;;6.00;5.60;;;15.40;99.90;;;;;;4914054;29;20710;-83
2022/06/21 01:57:29;;;;;;;5.70;5.40;;;15.40;99.90;;;;;;4899199;29;20283;-83
2022/06/21 02:00:03;;;;;;;6.17;5.57;;;15.40;99.90;;;;;;4898393;29;20224;-84
2022/06/21 02:02:37;;;;;;;5.70;5.30;;;15.40;99.90;;;;;;4916386;29;20204;-83
2022/06/21 02:05:09;;;;;;;6.07;5.47;;;15.30;99.90;;;;;;4915593;29;20591;-84
2022/06/21 02:07:40;;;;;;;5.80;5.40;;;15.30;99.90;;;;;;4916290;29;20234;-84
2022/06/21 02:10:14;;;;;;;5.90;5.50;;;15.30;99.90;;;;;;4899673;29;20210;-84
2022/06/21 02:12:45;;;;;;;5.90;5.50;;;15.30;99.90;;;;;;4894915;29;20208;-83
2022/06/21 02:15:24;;;;;;;5.93;5.53;;;15.30;99.90;;;;;;4906434;29;20222;-84
2022/06/21 02:17:51;;;;;;;5.97;5.47;;;15.30;99.90;;;;;;4896359;29;20600;-83
2022/06/21 02:20:23;;;;;;;6.60;6.20;;;15.30;99.90;;;;;;4897555;29;20617;-84
2022/06/21 02:22:50;;;;;;;5.90;5.50;;;15.30;99.90;;;;;;4898536;29;20231;-83
2022/06/21 02:25:20;;;;;;;6.27;5.80;;;15.30;99.90;;;;;;4894290;29;20625;-83
2022/06/21 02:27:49;;;;;;;6.23;5.87;;;15.20;99.90;;;;;;4890794;29;20210;-83
2022/06/21 02:30:20;;;;;;;5.83;5.43;;;15.20;99.90;;;;;;4887641;29;20754;-83
2022/06/21 02:32:47;;;;;;;6.10;5.70;;;15.20;99.90;;;;;;4895747;29;20685;-83
2022/06/21 02:35:22;;;;;;;6.07;5.67;;;15.20;99.90;;;;;;4901962;29;20250;-83
2022/06/21 02:37:51;;;;;;;5.63;5.33;;;15.10;99.90;;;;;;4903863;29;20654;-84
2022/06/21 02:40:21;;;;;;;6.50;5.90;;;15.00;99.90;;;;;;4907867;29;20253;-84
2022/06/21 02:42:51;;;;;;;6.33;5.80;;;15.00;99.90;;;;;;4914965;29;20272;-84
2022/06/21 02:45:25;;;;;;;6.60;6.03;;;15.00;99.90;;;;;;4908945;29;20319;-85
2022/06/21 02:47:55;;;;;;;6.43;6.03;;;15.00;99.90;;;;;;4898156;29;20205;-85
2022/06/21 02:50:36;;;;;;;6.67;6.17;;;14.90;99.90;;;;;;4892224;29;20287;-85
2022/06/21 02:53:08;;;;;;;6.33;5.80;;;14.90;99.90;;;;;;4900331;29;20205;-82
2022/06/21 02:55:42;;;;;;;6.27;5.87;;;14.90;99.90;;;;;;4918806;29;20228;-84
2022/06/21 02:58:16;;;;;;;5.93;5.63;;;14.90;99.90;;;;;;4898277;29;20724;-84
2022/06/21 03:00:46;;;;;;;6.50;6.00;;;14.80;99.90;;;;;;4912011;29;20221;-85
2022/06/21 03:03:18;;;;;;;6.53;6.10;;;14.80;99.90;;;;;;4913770;29;20279;-84
2022/06/21 03:05:48;;;;;;;6.43;5.83;;;14.70;99.90;;;;;;4898788;29;20234;-85
2022/06/21 03:08:16;;;;;;;6.00;5.70;;;14.70;99.90;;;;;;4887513;29;20200;-84
2022/06/21 03:10:55;;;;;;;6.80;6.40;;;14.70;99.90;;;;;;4913831;29;20204;-84
2022/06/21 03:13:25;;;;;;;6.53;6.03;;;14.60;99.90;;;;;;4915582;29;20199;-85
2022/06/21 03:15:58;;;;;;;7.13;6.73;;;14.70;99.90;;;;;;4915852;29;20221;-84
2022/06/21 03:18:28;;;;;;;6.57;5.97;;;14.70;99.90;;;;;;4912542;29;20272;-83
2022/06/21 03:20:56;;;;;;;6.87;6.37;;;14.70;99.90;;;;;;4914534;29;20251;-83
2022/06/21 03:23:24;;;;;;;6.20;5.80;;;14.60;99.90;;;;;;4896656;29;20231;-83
2022/06/21 03:25:53;;;;;;;6.23;5.83;;;14.60;99.90;;;;;;4898643;29;20790;-83
2022/06/21 03:28:27;;;;;;;6.27;5.77;;;14.60;99.90;;;;;;4907073;29;20619;-82
2022/06/21 03:31:04;;;;;;;6.00;5.60;;;14.60;99.90;;;;;;4901630;29;20251;-83
2022/06/21 03:33:32;;;;;;;6.10;5.70;;;14.60;99.90;;;;;;4894039;29;20199;-82
2022/06/21 03:36:01;;;;;;;6.30;5.90;;;14.60;99.90;;;;;;4916846;29;20220;-84
2022/06/21 03:38:28;;;;;;;6.20;5.80;;;14.60;99.90;;;;;;4918418;29;20644;-81
2022/06/21 03:44:00;;;;;;;6.10;5.70;;;14.70;99.90;;;;;;4827672;29;20203;-82
2022/06/21 03:46:33;;;;;;;6.23;5.83;;;14.70;99.90;;;;;;4899337;29;20224;-82
2022/06/21 03:49:06;;;;;;;6.30;5.80;;;14.80;99.90;;;;;;4917425;29;20204;-83
2022/06/21 03:51:37;;;;;;;6.47;6.00;;;14.80;99.90;;;;;;4902903;29;20240;-82
2022/06/21 03:54:09;;;;;;;6.67;6.27;;;14.90;99.90;;;;;;4910732;29;20198;-82
2022/06/21 03:56:43;;;;;;;6.10;5.80;;;14.90;99.90;;;;;;4894701;29;20763;-83
2022/06/21 03:59:18;;;;;;;6.40;6.00;;;15.00;99.90;;;;;;4900126;29;20214;-82
2022/06/21 04:01:54;;;;;;;7.10;6.70;;;15.00;99.90;;;;;;4901426;29;20202;-82
2022/06/21 04:04:29;;;;;;;6.07;5.67;;;15.10;99.90;;;;;;4891153;29;20645;-82
2022/06/21 04:07:02;;;;;;;6.07;5.77;;;15.10;99.90;;;;;;4916636;29;20205;-80
2022/06/21 04:09:34;;;;;;;6.10;5.70;;;15.10;99.90;;;;;;4909062;29;20209;-82
2022/06/21 04:12:07;;;;;;;6.40;5.80;;;15.30;99.90;;;;;;4905462;29;20216;-82
2022/06/21 04:14:41;;;;;;;5.80;5.50;;;15.40;99.90;;;;;;4913798;29;20233;-82
2022/06/21 04:17:18;;;;;;;6.07;5.67;;;15.50;99.90;;;;;;4898026;29;20223;-81
2022/06/21 04:19:50;;;;;;;6.13;5.73;;;15.50;99.90;;;;;;4912807;29;20256;-82
2022/06/21 04:22:25;;;;;;;6.17;5.77;;;15.60;99.90;;;;;;4901200;29;20264;-82
2022/06/21 04:24:57;;;;;;;6.70;6.20;;;15.60;99.90;;;;;;4917490;29;20219;-80
2022/06/21 04:27:29;;;;;;;6.35;5.95;;;15.70;99.90;;;;;;4909557;29;20455;-81
2022/06/21 04:30:01;;;;;;;6.30;5.97;;;15.80;99.90;;;;;;4901454;29;20204;-83
2022/06/21 04:32:31;;;;;;;6.40;6.00;;;15.90;99.90;;;;;;4918225;29;20205;-82
2022/06/21 04:35:04;;;;;;;6.70;6.20;;;16.10;99.90;;;;;;4900678;29;20655;-82
2022/06/21 04:37:37;;;;;;;6.30;5.90;;;16.20;99.90;;;;;;4917940;29;20270;-80
2022/06/21 04:40:09;;;;;;;5.50;5.10;;;16.20;99.90;;;;;;4897717;29;20257;-82
2022/06/21 04:42:42;;;;;;;6.10;5.70;;;16.40;99.90;;;;;;4903563;29;20204;-83
2022/06/21 04:45:17;;;;;;;6.30;5.90;;;16.50;99.90;;;;;;4892811;29;20230;-82
2022/06/21 04:47:49;;;;;;;6.20;5.90;;;16.60;99.90;;;;;;4901154;29;20251;-83
2022/06/21 04:50:24;;;;;;;5.77;5.40;;;16.80;99.90;;;;;;4909961;29;20204;-82
2022/06/21 04:52:56;;;;;;;6.00;5.63;;;16.90;99.90;;;;;;4917549;29;20202;-84
2022/06/21 04:55:31;;;;;;;5.57;5.20;;;17.10;99.90;;;;;;4917832;29;20588;-83
2022/06/21 04:57:58;;;;;;;5.60;5.20;;;17.20;99.90;;;;;;4899132;29;20236;-81
2022/06/21 05:00:24;;;;;;;6.07;5.70;;;17.30;99.90;;;;;;4898954;29;20211;-82
2022/06/21 05:02:55;;;;;;;6.47;5.97;;;17.50;99.90;;;;;;4914369;29;20742;-83
2022/06/21 05:05:26;;;;;;;6.20;5.80;;;17.60;99.90;;;;;;4904010;29;20696;-82
2022/06/21 05:07:55;;;;;;;6.10;5.60;;;17.60;99.90;;;;;;4900019;29;20211;-83
2022/06/21 05:10:27;;;;;;;5.10;4.80;;;17.60;99.90;;;;;;4897499;29;20207;-83
2022/06/21 05:12:56;;;;;;;2.83;2.07;;;17.60;99.90;;;;;;4899393;29;20303;-83
2022/06/21 05:15:26;;;;;;;2.20;2.10;;;17.80;99.90;;;;;;4899669;29;20228;-83
2022/06/21 05:17:58;;;;;;;2.30;2.10;;;17.70;99.90;;;;;;4899894;29;20267;-83
2022/06/21 05:20:29;;;;;;;2.10;2.00;;;17.70;99.90;;;;;;4917698;29;20196;-83
2022/06/21 05:23:01;;;;;;;2.40;2.10;;;17.70;99.90;;;;;;4893270;29;20667;-83
2022/06/21 05:25:30;;;;;;;2.37;2.10;;;17.60;99.90;;;;;;4905764;29;20387;-83
2022/06/21 05:28:01;;;;;;;3.13;2.53;;;17.50;99.90;;;;;;4900625;29;20223;-83
2022/06/21 05:30:43;;;;;;;3.00;2.43;;;17.40;99.90;;;;;;4897595;29;20216;-83
2022/06/21 05:33:17;;;;;;;3.17;2.97;;;17.40;99.90;;;;;;4896082;29;20555;-83
2022/06/21 05:35:45;;;;;;;4.47;2.90;;;17.60;99.90;;;;;;4899509;29;20221;-83
2022/06/21 05:38:21;;;;;;;2.90;2.10;;;17.50;99.90;;;;;;4892783;29;20228;-82
2022/06/21 05:40:54;;;;;;;3.13;2.83;;;17.40;99.90;;;;;;4900583;29;20624;-84
2022/06/21 05:43:28;;;;;;;5.10;4.80;;;17.60;99.90;;;;;;4889490;29;20284;-82
2022/06/21 05:46:00;;;;;;;5.73;5.20;;;17.70;99.90;;;;;;4899126;29;20284;-82
2022/06/21 05:48:32;;;;;;;5.47;4.97;;;17.80;99.90;;;;;;4900827;29;20204;-82
2022/06/21 05:51:01;;;;;;;6.27;5.87;;;18.20;99.90;;;;;;4913555;29;20236;-83
2022/06/21 05:53:33;;;;;;;2.20;2.10;;;18.80;99.90;;;;;;4914771;29;20217;-79
2022/06/21 05:56:04;;;;;;;2.30;2.10;;;19.50;99.90;;;;;;4914976;29;20573;-78
2022/06/21 05:58:35;;;;;;;4.40;4.00;;;19.90;99.90;;;;;;4895192;29;20226;-78
2022/06/21 06:01:06;;;;;;;5.20;4.67;;;20.80;99.90;;;;;;4909690;29;20553;-83
2022/06/21 06:03:40;;;;;;;2.00;1.90;;;21.40;99.90;;;;;;4898410;29;20200;-82
2022/06/21 06:06:13;;;;;;;2.27;2.03;;;22.20;99.90;;;;;;4898876;29;20219;-82
2022/06/21 06:08:42;;;;;;;6.50;6.00;;;22.80;99.90;;;;;;4917219;29;20199;-83
2022/06/21 06:11:15;;;;;;;6.30;5.90;;;23.00;99.90;;;;;;4910546;29;20263;-83
2022/06/21 06:13:44;;;;;;;5.27;4.87;;;23.20;99.90;;;;;;4918616;29;20204;-82
2022/06/21 06:16:33;;;;;;;4.47;4.20;;;23.60;99.90;;;;;;4917771;29;20561;-82
2022/06/21 06:19:10;;;;;;;4.80;4.50;;;24.00;99.90;;;;;;4900626;29;20236;-84
2022/06/21 06:21:42;;;;;;;4.90;4.40;;;24.40;99.90;;;;;;4890363;29;20200;-84
2022/06/21 06:24:19;;;;;;;5.90;5.50;;;24.50;99.90;;;;;;4900350;29;20263;-84
2022/06/21 06:26:50;;;;;;;6.10;5.70;;;24.30;99.90;;;;;;4898817;29;20657;-84
2022/06/21 06:29:20;;;;;;;5.47;5.07;;;23.20;99.90;;;;;;4904382;29;20210;-84
2022/06/21 06:31:55;;;;;;;6.43;5.83;;;22.70;99.90;;;;;;4893849;29;20572;-82
2022/06/21 06:34:27;;;;;;;6.40;5.80;;;22.30;99.90;;;;;;4901281;29;20771;-84
2022/06/21 06:36:57;;;;;;;6.57;6.07;;;22.20;99.90;;;;;;4918472;29;20202;-83
2022/06/21 06:39:28;;;;;;;6.47;5.90;;;22.70;99.90;;;;;;4919529;29;20244;-83
2022/06/21 06:42:01;;;;;;;6.37;5.90;;;22.90;99.90;;;;;;4900801;29;20272;-83
2022/06/21 06:44:29;;;;;;;6.33;5.93;;;23.20;99.90;;;;;;4906435;29;20228;-84
2022/06/21 06:46:59;;;;;;;7.00;6.40;;;23.80;99.90;;;;;;4917577;29;20214;-85
2022/06/21 06:49:34;;;;;;;5.50;5.00;;;24.20;99.90;;;;;;4897116;29;20231;-84
2022/06/21 06:52:05;;;;;;;6.33;6.00;;;24.30;99.90;;;;;;4912126;29;20548;-85
2022/06/21 06:54:39;;;;;;;6.67;6.17;;;24.30;99.90;;;;;;4917261;29;20283;-84
2022/06/21 06:57:20;;;;;;;6.93;6.37;;;24.30;99.90;;;;;;4920224;29;20532;-84
2022/06/21 06:59:47;;;;;;;7.13;6.47;;;24.40;99.90;;;;;;4911135;29;20204;-83
2022/06/21 07:02:21;;;;;;;6.07;5.67;;;24.70;99.90;;;;;;4895507;29;20733;-85
2022/06/21 07:05:03;;;;;;;4.73;4.33;;;24.90;99.90;;;;;;4919081;29;20271;-84
2022/06/21 07:07:38;;;;;;;6.43;5.83;;;24.60;99.90;;;;;;4922857;29;20248;-82
2022/06/21 07:10:11;;;;;;;6.50;6.00;;;24.80;99.90;;;;;;4918655;29;20196;-83
2022/06/21 07:12:38;;;;;;;6.20;5.57;;;25.20;99.80;;;;;;4909076;29;20259;-83
2022/06/21 07:15:06;;;;;;;6.67;6.07;;;25.30;99.40;;;;;;4902732;29;20236;-82
2022/06/21 07:17:37;;;;;;;5.97;5.40;;;25.00;99.90;;;;;;4915016;29;20323;-82
2022/06/21 07:20:12;;;;;;;6.50;6.10;;;24.80;99.10;;;;;;4905139;29;20260;-84
2022/06/21 07:22:39;;;;;;;6.77;6.27;;;24.40;99.90;;;;;;4906580;29;20276;-82
2022/06/21 07:25:17;;;;;;;7.03;6.53;;;24.10;99.90;;;;;;4922651;29;20272;-82
2022/06/21 07:27:49;;;;;;;7.00;6.50;;;23.90;99.90;;;;;;4918312;29;20749;-85
2022/06/21 07:30:17;;;;;;;7.00;6.50;;;23.70;99.90;;;;;;4922044;29;20200;-82
2022/06/21 07:32:49;;;;;;;6.80;6.30;;;23.30;99.90;;;;;;4902410;29;20214;-82
2022/06/21 07:35:22;;;;;;;6.60;6.20;;;23.30;99.90;;;;;;4908409;29;20223;-82
2022/06/21 07:37:54;;;;;;;6.73;6.20;;;23.10;99.50;;;;;;4908509;29;20666;-83
2022/06/21 07:40:25;;;;;;;6.40;5.90;;;23.00;99.90;;;;;;4908347;29;20683;-83
2022/06/21 07:42:57;;;;;;;6.50;6.00;;;22.90;99.90;;;;;;4907154;29;20204;-83
2022/06/21 07:45:31;;;;;;;6.73;6.23;;;22.90;99.90;;;;;;4914320;29;20232;-83
2022/06/21 07:48:04;;;;;;;6.20;5.80;;;23.00;99.90;;;;;;4902844;29;20224;-84
2022/06/21 07:50:39;;;;;;;6.37;5.87;;;23.00;99.90;;;;;;4906684;29;20211;-82
2022/06/21 07:53:11;;;;;;;6.30;5.80;;;23.20;99.90;;;;;;4914164;29;20195;-82
2022/06/21 07:55:41;;;;;;;6.10;5.70;;;24.10;99.30;;;;;;4920943;29;20274;-83
2022/06/21 07:58:15;;;;;;;7.70;6.20;;;24.40;99.90;;;;;;4903857;29;20255;-83
2022/06/21 08:06:43;;;;;;;6.87;6.13;;;25.50;96.30;;;;;;4911549;29;20307;-84
2022/06/21 08:09:21;;;;;;;6.47;5.80;;;26.10;98.00;;;;;;4911010;29;20221;-83
2022/06/21 08:11:50;;;;;;;6.30;5.80;;;26.00;96.00;;;;;;4904363;29;20207;-82
2022/06/21 08:14:17;;;;;;;6.97;6.50;;;25.30;96.60;;;;;;4888464;29;20220;-82
2022/06/21 08:16:47;;;;;;;6.50;6.10;;;25.10;96.40;;;;;;4909285;29;20676;-83
2022/06/21 08:19:21;;;;;;;6.60;6.20;;;24.90;96.90;;;;;;4902145;29;20228;-82
2022/06/21 08:21:55;;;;;;;6.80;6.30;;;24.70;98.00;;;;;;4921462;29;20204;-83
2022/06/21 08:24:28;;;;;;;7.10;6.60;;;24.40;97.00;;;;;;4921346;29;20219;-83
2022/06/21 08:27:04;;;;;;;6.43;6.03;;;24.30;97.60;;;;;;4921585;29;20204;-83
2022/06/21 08:29:36;;;;;;;7.27;6.63;;;24.40;98.20;;;;;;4900390;29;20204;-83
2022/06/21 08:32:06;;;;;;;7.03;6.53;;;24.20;98.60;;;;;;4905382;29;20260;-82
2022/06/21 08:34:39;;;;;;;7.40;6.70;;;24.20;99.20;;;;;;4901943;29;20251;-83
2022/06/21 08:37:14;;;;;;;7.40;6.90;;;23.90;99.10;;;;;;4902032;29;20267;-82
2022/06/21 08:39:49;;;;;;;6.90;6.40;;;23.40;99.60;;;;;;4900195;29;20270;-81
2022/06/21 08:42:54;;;;;;;7.50;6.80;;;23.40;99.90;;;;;;4893279;29;20206;-82
2022/06/21 08:45:43;;;;;;;6.93;6.27;;;23.40;99.90;;;;;;4916470;29;20228;-82
2022/06/21 08:48:58;;;;;;;7.33;6.77;;;23.70;99.90;;;;;;4893765;29;20232;-83
2022/06/21 08:51:57;;;;;;;6.67;6.13;;;23.70;99.90;;;;;;4910956;29;20212;-83
2022/06/21 08:54:38;;;;;;;6.73;6.23;;;23.70;99.90;;;;;;4896482;29;20330;-83
2022/06/21 08:57:13;;;;;;;6.37;5.97;;;24.00;99.90;;;;;;4921649;29;20767;-83
2022/06/21 08:59:52;;;;;;;7.47;6.77;;;24.40;99.90;;;;;;4903371;29;20235;-84
2022/06/21 09:02:30;;;;;;;7.00;6.40;;;24.60;99.20;;;;;;4914720;29;20680;-82
2022/06/21 09:05:07;;;;;;;6.30;5.70;;;24.80;99.00;;;;;;4905346;29;20231;-82
2022/06/21 09:07:47;;;;;;;5.83;5.40;;;24.90;98.60;;;;;;4921455;29;20255;-82
2022/06/21 09:10:27;;;;;;;6.20;5.70;;;25.40;98.70;;;;;;4893203;29;20741;-82
2022/06/21 09:13:09;;;;;;;6.47;5.87;;;26.00;97.80;;;;;;4901298;29;20209;-84
2022/06/21 09:15:47;;;;;;;6.87;6.17;;;26.00;98.60;;;;;;4893144;29;20228;-83
2022/06/21 09:18:32;;;;;;;2.53;2.30;;;26.20;98.00;;;;;;4894431;29;20279;-82
2022/06/21 09:21:05;;;;;;;5.23;4.83;;;26.40;97.30;;;;;;4911711;29;20280;-82
2022/06/21 09:23:52;;;;;;;5.90;5.17;;;26.50;97.30;;;;;;4915508;29;20271;-81
2022/06/21 09:26:32;;;;;;;6.50;5.90;;;26.50;96.90;;;;;;4913216;29;20204;-80
2022/06/21 09:29:12;;;;;;;7.10;6.40;;;27.20;96.50;;;;;;4934827;29;20222;-81
2022/06/21 09:31:49;;;;;;;6.47;5.90;;;27.40;96.30;;;;;;4916309;29;20246;-80
2022/06/21 09:34:27;;;;;;;6.40;5.80;;;27.40;95.70;;;;;;4928417;29;21881;-80
2022/06/21 09:37:00;;;;;;;5.10;4.70;;;27.60;96.20;;;;;;4935101;29;20199;-81
2022/06/21 09:39:34;;;;;;;5.77;5.37;;;27.40;96.10;;;;;;4917471;29;20248;-81
2022/06/21 09:42:11;;;;;;;6.40;5.90;;;27.30;95.60;;;;;;4916519;29;20212;-80
2022/06/21 09:44:43;;;;;;;6.70;6.20;;;27.30;97.50;;;;;;4922435;29;20235;-80
2022/06/21 09:47:17;;;;;;;6.70;6.13;;;27.70;96.70;;;;;;4926497;29;20231;-80
2022/06/21 09:49:50;;;;;;;6.83;6.33;;;27.60;96.70;;;;;;4934038;29;20196;-81
2022/06/21 09:52:30;;;;;;;6.50;6.00;;;27.40;95.60;;;;;;4910902;29;20210;-80
2022/06/21 09:55:08;;;;;;;5.30;4.90;;;27.10;95.60;;;;;;4915346;29;20224;-80
2022/06/21 09:57:43;;;;;;;5.10;4.70;;;26.90;96.60;;;;;;4918286;29;20237;-80
2022/06/21 10:00:16;;;;;;;6.60;6.07;;;27.10;95.90;;;;;;4917124;29;20279;-79
2022/06/21 10:02:58;;;;;;;4.97;4.60;;;27.30;97.60;;;;;;4917806;29;20209;-81
2022/06/21 10:05:32;;;;;;;4.60;4.30;;;27.90;95.80;;;;;;4899135;29;20236;-82
2022/06/21 10:08:18;;;;;;;6.60;6.00;;;27.40;95.90;;;;;;4910405;29;20290;-82
2022/06/21 10:11:01;;;;;;;6.50;6.00;;;27.60;95.60;;;;;;4901441;29;20212;-81
2022/06/21 10:13:47;;;;;;;5.27;4.87;;;27.80;95.80;;;;;;4904720;29;20212;-81
2022/06/21 10:16:37;;;;;;;4.63;4.30;;;27.60;96.20;;;;;;4905371;29;20285;-82
2022/06/21 10:19:18;;;;;;;5.40;4.90;;;27.60;96.10;;;;;;4899218;29;20252;-82
2022/06/21 10:21:57;;;;;;;6.40;5.00;;;27.70;96.20;;;;;;4916896;29;20639;-82
2022/06/21 10:24:58;;;;;;;5.33;4.83;;;27.70;96.50;;;;;;4896892;29;20260;-82
2022/06/21 10:27:49;;;;;;;5.23;4.73;;;27.60;95.50;;;;;;4911577;29;20273;-82
2022/06/21 10:30:39;;;;;;;6.30;5.80;;;27.50;96.10;;;;;;4911151;29;20192;-82
2022/06/21 10:33:37;;;;;;;5.80;5.30;;;27.40;96.00;;;;;;4917187;29;20217;-82
2022/06/21 10:36:16;;;;;;;6.97;6.00;;;27.50;96.70;;;;;;4878944;29;20232;-82
2022/06/21 10:39:21;;;;;;;6.30;5.80;;;27.40;96.70;;;;;;4902066;29;20278;-81
2022/06/21 10:45:16;;;;;;;6.57;6.07;;;27.00;97.30;;;;;;4863567;29;20228;-87
2022/06/21 10:48:09;;;;;;;6.30;5.80;;;27.00;98.10;;;;;;4895186;29;20211;-84
2022/06/21 10:50:45;;;;;;;6.47;6.00;;;26.80;97.00;;;;;;4909489;29;20204;-84
2022/06/21 10:53:41;;;;;;;7.60;6.70;;;26.80;97.20;;;;;;4888547;29;20629;-84
2022/06/21 10:59:16;;;;;;;6.50;5.90;;;27.00;97.50;;;;;;4893032;29;20243;-84
2022/06/21 11:01:47;;;;;;;6.53;6.00;;;26.70;98.30;;;;;;4906804;29;20219;-83
2022/06/21 11:04:41;;;;;;;6.70;6.20;;;26.50;97.90;;;;;;4907600;29;20488;-84
2022/06/21 11:07:16;;;;;;;6.80;6.30;;;26.50;98.80;;;;;;4898348;29;20286;-83
2022/06/21 11:09:50;;;;;;;6.87;6.27;;;26.40;98.20;;;;;;4897935;29;20231;-84
2022/06/21 11:15:12;;;;;;;7.43;6.83;;;26.80;99.10;;;;;;4917639;29;20719;-84
2022/06/21 11:17:48;;;;;;;6.90;6.40;;;26.80;98.60;;;;;;4900470;29;20204;-84
2022/06/21 11:20:21;;;;;;;7.00;6.50;;;27.00;98.60;;;;;;4907055;29;20217;-84
2022/06/21 11:22:58;;;;;;;6.63;6.23;;;27.10;99.10;;;;;;4899250;29;20212;-83
2022/06/21 11:25:34;;;;;;;5.60;5.20;;;27.30;99.50;;;;;;4918689;29;20231;-83
2022/06/21 11:28:11;;;;;;;6.17;5.67;;;27.30;98.50;;;;;;4899171;29;20272;-84
2022/06/21 11:30:45;;;;;;;3.10;2.73;;;27.70;97.70;;;;;;4913565;29;20196;-83
2022/06/21 11:33:23;;;;;;;4.80;3.30;;;27.90;98.50;;;;;;4918665;29;20279;-84
2022/06/21 11:35:59;;;;;;;5.30;4.90;;;27.80;97.60;;;;;;4899419;29;20228;-83
2022/06/21 11:38:51;;;;;;;3.50;2.73;;;27.60;98.10;;;;;;4918704;29;20204;-83
2022/06/21 11:44:24;;;;;;;3.67;2.90;;;27.80;98.00;;;;;;4890296;29;20212;-81
2022/06/21 11:46:57;;;;;;;8.03;7.43;;;27.90;99.20;;;;;;4899135;29;20334;-84
2022/06/21 11:49:36;;;;;;;7.07;6.43;;;28.10;98.40;;;;;;4907283;29;20324;-84
2022/06/21 11:52:35;;;;;;;6.13;4.73;;;28.30;98.40;;;;;;4902486;29;20236;-84
2022/06/21 11:55:15;;;;;;;6.27;5.77;;;28.00;98.70;;;;;;4900626;29;20642;-83
2022/06/21 11:57:48;;;;;;;7.60;7.00;;;28.00;98.70;;;;;;4914379;29;20255;-84
2022/06/21 12:00:24;;;;;;;7.20;6.70;;;27.80;98.50;;;;;;4893443;29;20220;-84
2022/06/21 12:02:56;;;;;;;7.77;7.17;;;27.60;98.90;;;;;;4899354;29;20254;-84
2022/06/21 12:05:37;;;;;;;6.87;6.23;;;27.30;99.90;;;;;;4909500;29;20216;-84
2022/06/21 12:08:14;;;;;;;7.30;6.70;;;27.60;99.90;;;;;;4893612;29;20489;-84
2022/06/21 12:10:50;;;;;;;7.87;7.13;;;27.90;99.90;;;;;;4901436;29;20248;-83
2022/06/21 12:13:36;;;;;;;7.00;6.30;;;27.80;99.10;;;;;;4909909;29;20798;-83
2022/06/21 12:16:19;;;;;;;6.37;5.87;;;27.80;99.20;;;;;;4900805;29;20283;-83
2022/06/21 12:18:50;;;;;;;7.33;6.73;;;27.80;99.20;;;;;;4906581;29;20213;-83
2022/06/21 12:21:20;;;;;;;6.43;6.03;;;27.80;99.90;;;;;;4917611;29;20219;-83
2022/06/21 12:23:53;;;;;;;8.07;7.33;;;27.90;99.90;;;;;;4914531;29;20244;-83
2022/06/21 12:26:22;;;;;;;7.10;6.60;;;27.80;99.60;;;;;;4908234;29;20220;-83
2022/06/21 12:28:50;;;;;;;7.53;6.83;;;27.70;99.90;;;;;;4917188;29;20251;-84
2022/06/21 12:31:23;;;;;;;7.33;6.73;;;27.70;99.90;;;;;;4897332;29;20204;-83
2022/06/21 12:33:55;;;;;;;8.00;7.17;;;27.60;99.70;;;;;;4890922;29;20200;-83
2022/06/21 12:36:35;;;;;;;7.70;7.00;;;27.70;99.90;;;;;;4900251;29;20224;-83
2022/06/21 12:39:11;;;;;;;7.53;6.70;;;27.40;99.90;;;;;;4892556;29;20212;-84
2022/06/21 12:41:47;;;;;;;7.90;7.20;;;27.60;99.90;;;;;;4917110;29;20673;-83
2022/06/21 12:44:24;;;;;;;5.67;4.03;;;27.80;99.90;;;;;;4900718;29;20204;-83
2022/06/21 12:47:00;;;;;;;6.70;4.83;;;28.20;99.90;;;;;;4902737;29;20212;-84
2022/06/21 12:49:42;;;;;;;6.33;5.83;;;28.30;99.80;;;;;;4894311;29;20212;-83
2022/06/21 12:52:21;;;;;;;7.83;7.23;;;28.20;99.90;;;;;;4902173;29;20268;-84
2022/06/21 12:55:05;;;;;;;8.67;7.70;;;28.30;99.90;;;;;;4912605;29;20220;-83
2022/06/21 12:57:46;;;;;;;8.47;7.70;;;28.30;99.90;;;;;;4900153;29;20707;-83
2022/06/21 13:00:24;;;;;;;6.07;4.53;;;28.10;99.90;;;;;;4905188;29;20260;-84
2022/06/21 13:03:46;;;;;;;6.60;4.23;;;28.00;99.90;;;;;;4905619;29;20212;-83
2022/06/21 13:06:38;;;;;;;5.20;4.03;;;27.90;99.90;;;;;;4890266;29;20248;-84
2022/06/21 13:09:53;;;;;;;8.33;7.53;;;27.70;99.90;;;;;;4916825;29;20196;-83
2022/06/21 13:12:39;;;;;;;6.27;5.70;;;27.60;99.90;;;;;;4893647;29;20627;-83
2022/06/21 13:15:20;;;;;;;7.83;7.23;;;27.50;99.90;;;;;;4899829;29;20713;-83
2022/06/21 13:18:12;;;;;;;7.97;7.23;;;27.40;99.90;;;;;;4899626;29;20207;-83
2022/06/21 13:20:46;;;;;;;7.87;7.17;;;27.30;99.90;;;;;;4881037;29;20239;-83
2022/06/21 13:23:20;;;;;;;7.90;7.20;;;27.30;99.90;;;;;;4884556;29;20210;-84
2022/06/21 13:25:53;;;;;;;7.80;7.20;;;27.30;99.90;;;;;;4908852;29;20223;-83
2022/06/21 13:28:30;;;;;;;7.83;7.13;;;27.50;99.90;;;;;;4914205;29;20206;-82
2022/06/21 13:31:03;;;;;;;6.70;6.10;;;27.70;99.90;;;;;;4899390;29;20192;-83
2022/06/21 13:34:02;;;;;;;5.80;5.30;;;27.70;99.90;;;;;;4900071;29;20259;-83
2022/06/21 13:36:36;;;;;;;6.47;5.83;;;27.50;99.90;;;;;;4904445;29;20228;-83
2022/06/21 13:39:15;;;;;;;5.17;4.60;;;27.20;99.90;;;;;;4915653;29;20214;-83
2022/06/21 13:44:40;;;;;;;7.20;6.53;;;27.30;99.90;;;;;;4891316;29;20221;-83
2022/06/21 13:47:14;;;;;;;5.73;3.40;;;27.50;99.90;;;;;;4906358;29;20259;-83
2022/06/21 13:49:44;;;;;;;5.73;4.97;;;27.50;99.90;;;;;;4912507;29;20207;-83
2022/06/21 13:52:19;;;;;;;7.33;6.63;;;27.30;99.90;;;;;;4908072;29;20665;-81